Time;durP1;ratioP1;P1;durP2;ratioP2;P2;SDS_P1;SDS_P2;PMS_P1;PMS_P2;Temp;Humidity;BMP_temperature;BMP_pressure;BME280_temperature;BME280_humidity;BME280_pressure;Samples;Min_cycle;Max_cycle;Signal;HPM_P1;HPM_P2
2024/03/29 01:43:20;;;;;;;1.20;0.80;;;9.50;99.90;;;;;;4933460;28;20475;-69
2024/03/29 01:45:49;;;;;;;1.00;0.70;;;9.60;99.90;;;;;;4917722;28;20288;-69
2024/03/29 01:48:18;;;;;;;1.00;0.70;;;9.70;99.90;;;;;;4936956;28;20513;-69
2024/03/29 01:50:45;;;;;;;3.30;1.10;;;9.80;99.90;;;;;;4940432;28;20919;-69
2024/03/29 01:53:13;;;;;;;0.90;0.60;;;9.80;99.90;;;;;;4941255;28;20462;-69
2024/03/29 01:55:42;;;;;;;1.10;0.80;;;9.70;99.90;;;;;;4943624;28;20539;-68
2024/03/29 01:58:10;;;;;;;1.00;0.73;;;9.70;99.90;;;;;;4939269;28;20454;-69
2024/03/29 02:00:39;;;;;;;1.20;0.83;;;9.70;99.90;;;;;;4942669;28;20709;-69
2024/03/29 02:03:09;;;;;;;4.47;1.17;;;9.70;99.90;;;;;;4933160;28;20479;-68
2024/03/29 02:05:38;;;;;;;1.00;0.70;;;9.70;99.90;;;;;;4935987;28;20471;-68
2024/03/29 02:08:06;;;;;;;1.27;0.77;;;9.80;99.90;;;;;;4939351;28;20464;-68
2024/03/29 02:10:33;;;;;;;4.03;1.00;;;9.70;99.90;;;;;;4940909;28;20440;-68
2024/03/29 02:13:01;;;;;;;2.13;1.10;;;9.80;99.90;;;;;;4934685;28;20468;-68
2024/03/29 02:15:29;;;;;;;1.83;0.80;;;9.80;99.90;;;;;;4934044;28;20472;-69
2024/03/29 02:17:56;;;;;;;1.63;0.93;;;9.80;99.90;;;;;;4937735;28;20495;-68
2024/03/29 02:20:23;;;;;;;1.03;0.70;;;9.80;99.90;;;;;;4938291;28;20430;-69
2024/03/29 02:22:56;;;;;;;1.93;0.90;;;9.90;99.90;;;;;;4943453;28;20598;-69
2024/03/29 02:25:24;;;;;;;1.20;0.90;;;9.80;99.90;;;;;;4939130;28;20475;-69
2024/03/29 02:27:52;;;;;;;2.37;0.90;;;9.90;99.90;;;;;;4933694;28;20831;-69
2024/03/29 02:30:19;;;;;;;3.57;1.27;;;9.90;99.90;;;;;;4935692;28;20886;-69
2024/03/29 02:32:46;;;;;;;1.47;1.13;;;10.00;99.90;;;;;;4936939;28;20459;-69
2024/03/29 02:35:13;;;;;;;1.97;1.33;;;9.90;99.90;;;;;;4937521;28;20488;-69
2024/03/29 02:37:40;;;;;;;3.10;1.43;;;10.00;99.90;;;;;;4936187;28;20503;-70
2024/03/29 02:40:08;;;;;;;3.23;2.30;;;10.00;99.90;;;;;;4926407;28;20468;-70
2024/03/29 02:42:36;;;;;;;1.30;0.90;;;10.00;99.90;;;;;;4939483;28;20458;-69
2024/03/29 02:45:02;;;;;;;1.73;0.90;;;10.00;99.90;;;;;;4936571;28;20471;-69
2024/03/29 02:47:29;;;;;;;1.73;1.17;;;10.10;99.90;;;;;;4932557;28;20803;-68
2024/03/29 02:49:55;;;;;;;6.80;2.50;;;10.20;99.90;;;;;;4941476;28;20438;-69
2024/03/29 02:52:22;;;;;;;1.30;1.07;;;10.10;99.90;;;;;;4940110;28;20448;-69
2024/03/29 02:54:48;;;;;;;3.63;1.10;;;10.20;99.90;;;;;;4937566;28;20204;-69
2024/03/29 02:57:14;;;;;;;11.03;1.30;;;10.30;99.90;;;;;;4940553;28;20514;-69
2024/03/29 02:59:42;;;;;;;2.40;1.17;;;10.30;99.90;;;;;;4940796;28;20553;-69
2024/03/29 03:02:09;;;;;;;1.83;1.27;;;10.30;99.90;;;;;;4943785;28;20479;-69
2024/03/29 03:04:35;;;;;;;3.87;1.37;;;10.20;99.90;;;;;;4937298;28;20946;-69
2024/03/29 03:10:56;;;;;;;1.50;1.40;;;10.20;99.90;;;;;;4936457;28;20495;-70
2024/03/29 03:12:38;;;;;;;1.20;0.90;;;10.50;99.90;;;;;;4936092;28;20987;-69
2024/03/29 03:15:07;;;;;;;1.00;0.70;;;10.50;99.90;;;;;;4938924;28;20637;-69
2024/03/29 03:17:33;;;;;;;1.10;0.70;;;10.60;99.90;;;;;;4932157;28;20959;-69
2024/03/29 03:20:04;;;;;;;1.00;0.70;;;10.70;99.90;;;;;;4942555;28;20586;-69
2024/03/29 03:22:29;;;;;;;1.10;0.80;;;10.70;99.90;;;;;;4933167;28;20239;-69
2024/03/29 03:24:56;;;;;;;1.50;0.80;;;10.90;99.90;;;;;;4942154;28;20974;-69
2024/03/29 03:27:23;;;;;;;1.10;0.87;;;10.80;99.90;;;;;;4932166;28;21898;-69
2024/03/29 03:29:50;;;;;;;1.10;0.90;;;10.90;99.90;;;;;;4935764;28;20464;-69
2024/03/29 03:32:17;;;;;;;1.00;0.80;;;10.90;99.90;;;;;;4934400;28;20499;-68
2024/03/29 03:34:44;;;;;;;2.80;0.90;;;10.90;99.90;;;;;;4946273;28;20464;-69
2024/03/29 03:37:09;;;;;;;4.43;0.80;;;10.80;99.90;;;;;;4939075;28;21266;-69
2024/03/29 03:39:36;;;;;;;1.87;0.80;;;10.70;99.90;;;;;;4938808;28;20456;-69
2024/03/29 03:42:02;;;;;;;1.00;0.70;;;10.60;99.90;;;;;;4938356;28;20224;-69
2024/03/29 03:44:29;;;;;;;1.00;0.70;;;10.80;99.90;;;;;;4937573;28;20469;-69
2024/03/29 03:46:55;;;;;;;3.00;0.73;;;10.80;99.90;;;;;;4936605;28;20467;-69
2024/03/29 03:49:23;;;;;;;1.00;0.90;;;10.90;99.90;;;;;;4933599;28;20459;-69
2024/03/29 03:51:49;;;;;;;2.43;1.03;;;10.90;99.90;;;;;;4942415;28;20484;-70
2024/03/29 03:54:16;;;;;;;1.00;0.60;;;10.90;99.90;;;;;;4943389;28;20463;-69
2024/03/29 03:56:42;;;;;;;1.00;0.70;;;10.80;99.90;;;;;;4942062;28;20205;-69
2024/03/29 03:59:09;;;;;;;1.30;1.20;;;10.80;99.90;;;;;;4933686;28;20547;-69
2024/03/29 04:01:35;;;;;;;1.00;0.77;;;10.80;99.90;;;;;;4935812;28;20492;-69
2024/03/29 04:04:02;;;;;;;6.60;1.00;;;10.80;99.90;;;;;;4940633;28;20459;-69
2024/03/29 04:06:29;;;;;;;1.33;1.23;;;10.70;99.90;;;;;;4939989;28;20444;-69
2024/03/29 04:08:55;;;;;;;1.40;0.80;;;10.80;99.90;;;;;;4938317;28;20455;-69
2024/03/29 04:11:21;;;;;;;2.53;0.77;;;10.60;99.90;;;;;;4938258;28;20469;-69
2024/03/29 04:13:48;;;;;;;1.30;0.90;;;10.40;99.90;;;;;;4943378;28;21002;-69
2024/03/29 04:16:14;;;;;;;1.00;0.70;;;10.30;99.90;;;;;;4934538;28;20216;-69
2024/03/29 04:18:40;;;;;;;1.53;0.83;;;10.20;99.90;;;;;;4941091;28;20485;-69
2024/03/29 04:21:06;;;;;;;1.20;0.73;;;10.00;99.90;;;;;;4948347;28;20673;-69
2024/03/29 04:23:35;;;;;;;1.93;0.87;;;9.90;99.90;;;;;;4970553;23;20483;-71
2024/03/29 04:26:00;;;;;;;1.63;0.87;;;9.90;99.90;;;;;;4953400;28;20470;-71
2024/03/29 04:28:27;;;;;;;1.70;0.90;;;9.90;99.90;;;;;;4953484;28;21083;-71
2024/03/29 04:30:55;;;;;;;1.20;0.80;;;9.90;99.90;;;;;;4955310;28;21506;-71
2024/03/29 04:33:22;;;;;;;1.07;0.97;;;9.90;99.90;;;;;;4942642;28;20584;-71
2024/03/29 04:35:54;;;;;;;1.87;0.87;;;9.90;99.90;;;;;;4939180;28;20812;-71
2024/03/29 04:38:20;;;;;;;1.20;1.00;;;9.70;99.90;;;;;;4934570;28;20646;-71
2024/03/29 04:40:49;;;;;;;1.00;0.70;;;9.60;99.90;;;;;;4937723;28;20539;-71
2024/03/29 04:43:15;;;;;;;1.53;0.80;;;9.50;99.90;;;;;;4931549;28;20463;-72
2024/03/29 04:45:43;;;;;;;1.40;1.10;;;9.60;99.90;;;;;;4931228;28;20438;-72
2024/03/29 04:48:10;;;;;;;2.03;1.57;;;9.50;99.90;;;;;;4943360;28;21107;-72
2024/03/29 04:50:37;;;;;;;2.70;0.80;;;9.60;99.90;;;;;;4932078;28;21264;-72
2024/03/29 04:53:04;;;;;;;1.10;0.80;;;9.70;99.90;;;;;;4940470;28;20510;-72
2024/03/29 04:55:31;;;;;;;1.00;0.73;;;9.40;99.90;;;;;;4940114;28;20473;-72
2024/03/29 04:57:59;;;;;;;1.00;0.70;;;9.40;99.90;;;;;;4945612;28;20486;-72
2024/03/29 05:00:26;;;;;;;1.20;1.00;;;9.20;99.90;;;;;;4951774;28;20467;-72
2024/03/29 05:02:53;;;;;;;1.73;1.23;;;9.20;99.90;;;;;;4945599;28;20491;-71
2024/03/29 05:05:19;;;;;;;1.20;0.90;;;9.10;99.90;;;;;;4936812;28;20834;-70
2024/03/29 05:07:46;;;;;;;1.13;0.70;;;9.10;99.90;;;;;;4942331;28;20432;-70
2024/03/29 05:10:13;;;;;;;1.43;1.23;;;9.10;99.90;;;;;;4941619;28;20551;-70
2024/03/29 05:12:40;;;;;;;1.03;0.80;;;9.10;99.90;;;;;;4936943;28;20575;-70
2024/03/29 05:15:09;;;;;;;2.70;0.80;;;9.10;99.90;;;;;;4943347;28;20463;-70
2024/03/29 05:17:37;;;;;;;1.00;0.80;;;9.10;99.90;;;;;;4940321;28;20495;-70
2024/03/29 05:20:05;;;;;;;1.27;0.77;;;9.30;99.90;;;;;;4946613;28;20602;-70
2024/03/29 05:22:31;;;;;;;1.20;0.80;;;9.20;99.90;;;;;;4947932;28;20566;-70
2024/03/29 05:24:58;;;;;;;1.33;1.23;;;9.10;99.90;;;;;;4939742;28;20442;-71
2024/03/29 05:27:25;;;;;;;3.73;1.90;;;8.90;99.90;;;;;;4938045;28;20456;-70
2024/03/29 05:29:52;;;;;;;4.10;1.20;;;8.90;99.90;;;;;;4937659;28;20570;-70
2024/03/29 05:32:20;;;;;;;1.10;0.83;;;8.90;99.90;;;;;;4935327;28;20574;-70
2024/03/29 05:34:47;;;;;;;1.13;0.80;;;9.00;99.90;;;;;;4947350;28;20498;-70
2024/03/29 05:37:15;;;;;;;1.83;0.90;;;8.90;99.90;;;;;;4943431;28;20439;-69
2024/03/29 05:39:42;;;;;;;1.40;0.90;;;8.90;99.90;;;;;;4943746;28;20559;-70
2024/03/29 05:42:09;;;;;;;0.93;0.70;;;8.80;99.90;;;;;;4941044;28;20867;-70
2024/03/29 05:44:37;;;;;;;1.00;0.70;;;8.80;99.90;;;;;;4945222;28;20471;-70
2024/03/29 05:47:04;;;;;;;1.20;1.00;;;8.70;99.90;;;;;;4944404;28;20589;-70
2024/03/29 05:49:33;;;;;;;1.60;1.10;;;8.70;99.90;;;;;;4945047;28;20547;-70
2024/03/29 05:52:00;;;;;;;2.90;0.90;;;8.70;99.90;;;;;;4935940;28;20492;-70
2024/03/29 05:54:26;;;;;;;1.73;1.00;;;8.80;99.90;;;;;;4945992;28;20486;-70
2024/03/29 05:56:53;;;;;;;1.10;0.80;;;8.90;99.90;;;;;;4939998;28;20439;-70
2024/03/29 05:59:20;;;;;;;3.23;1.70;;;8.90;99.90;;;;;;4943897;28;20496;-70
2024/03/29 06:01:47;;;;;;;5.73;1.17;;;9.00;99.90;;;;;;4931561;28;21242;-70
2024/03/29 06:04:16;;;;;;;1.67;1.00;;;9.10;99.90;;;;;;4939080;28;20443;-69
2024/03/29 06:06:44;;;;;;;2.43;1.03;;;9.00;99.90;;;;;;4938982;28;20491;-71
2024/03/29 06:09:11;;;;;;;4.33;3.47;;;9.00;99.90;;;;;;4940061;28;20456;-71
2024/03/29 06:11:39;;;;;;;3.93;1.20;;;9.00;99.90;;;;;;4932627;28;20497;-71
2024/03/29 06:19:34;;;;;;;1.87;1.07;;;8.80;99.90;;;;;;4937175;28;20468;-70
2024/03/29 06:22:04;;;;;;;4.13;1.33;;;8.70;99.90;;;;;;4926027;28;20488;-70
2024/03/29 06:24:32;;;;;;;1.30;0.80;;;8.70;99.90;;;;;;4930610;28;20496;-70
2024/03/29 06:26:59;;;;;;;1.50;1.00;;;8.80;99.90;;;;;;4930271;28;20963;-70
2024/03/29 06:29:25;;;;;;;3.90;0.90;;;8.90;99.90;;;;;;4942028;28;20496;-71
2024/03/29 06:31:52;;;;;;;1.80;1.20;;;8.80;99.90;;;;;;4932813;28;20977;-71
2024/03/29 06:34:19;;;;;;;2.07;1.00;;;8.80;99.90;;;;;;4935587;28;20568;-71
2024/03/29 06:36:46;;;;;;;1.77;1.30;;;8.80;99.90;;;;;;4939268;28;20465;-71
2024/03/29 06:39:14;;;;;;;5.23;1.27;;;8.90;99.90;;;;;;4929932;28;21007;-70
2024/03/29 06:41:40;;;;;;;3.30;1.40;;;8.80;99.90;;;;;;4928783;28;20869;-70
2024/03/29 06:44:07;;;;;;;1.30;1.13;;;8.90;99.90;;;;;;4940210;28;20971;-70
2024/03/29 06:46:34;;;;;;;3.73;1.63;;;8.90;99.90;;;;;;4936326;28;20494;-70
2024/03/29 06:49:01;;;;;;;1.87;1.10;;;9.00;99.90;;;;;;4935132;28;20492;-70
2024/03/29 06:51:28;;;;;;;1.70;1.20;;;9.10;99.90;;;;;;4940717;28;20488;-70
2024/03/29 06:53:55;;;;;;;1.93;1.10;;;9.20;99.90;;;;;;4941329;28;20460;-70
2024/03/29 06:56:23;;;;;;;1.37;1.00;;;9.30;99.90;;;;;;4935440;28;20838;-70
2024/03/29 06:58:50;;;;;;;2.17;1.70;;;9.40;99.90;;;;;;4931050;28;20479;-70
2024/03/29 07:01:16;;;;;;;1.30;1.10;;;9.60;99.90;;;;;;4943972;28;20496;-70
2024/03/29 07:03:44;;;;;;;1.80;1.10;;;9.60;99.90;;;;;;4931008;28;20597;-70
2024/03/29 07:06:11;;;;;;;2.40;1.23;;;9.50;99.90;;;;;;4928897;28;20482;-71
2024/03/29 07:08:37;;;;;;;1.40;1.20;;;9.50;99.90;;;;;;4940837;28;20464;-70
2024/03/29 07:11:04;;;;;;;2.23;2.03;;;9.50;99.90;;;;;;4928190;28;20494;-70
2024/03/29 07:13:33;;;;;;;2.40;1.27;;;9.60;99.90;;;;;;4936882;28;20865;-70
2024/03/29 07:16:00;;;;;;;1.23;1.10;;;9.70;99.90;;;;;;4926969;28;20658;-70
2024/03/29 07:18:26;;;;;;;2.30;1.90;;;9.40;99.90;;;;;;4937466;28;20467;-71
2024/03/29 07:20:54;;;;;;;3.30;2.10;;;9.40;99.90;;;;;;4930935;28;20934;-70
2024/03/29 07:23:21;;;;;;;4.63;2.10;;;9.60;99.90;;;;;;4939190;28;20488;-70
2024/03/29 07:25:59;;;;;;;1.80;1.53;;;9.70;99.90;;;;;;4927829;28;21047;-71
2024/03/29 07:28:26;;;;;;;1.40;0.90;;;9.80;99.90;;;;;;4932900;28;20445;-71
2024/03/29 07:30:54;;;;;;;4.27;1.87;;;10.00;99.90;;;;;;4931222;28;20466;-71
2024/03/29 07:33:23;;;;;;;1.30;0.90;;;10.00;99.90;;;;;;4947514;28;20467;-71
2024/03/29 07:35:50;;;;;;;1.30;0.97;;;10.10;99.90;;;;;;4934217;28;20951;-69
2024/03/29 07:38:17;;;;;;;1.20;0.93;;;10.10;99.90;;;;;;4938461;28;20546;-70
2024/03/29 07:40:44;;;;;;;1.93;1.27;;;10.20;99.90;;;;;;4924748;28;20476;-69
2024/03/29 07:43:13;;;;;;;1.10;0.90;;;10.10;99.90;;;;;;4935600;28;21145;-69
2024/03/29 07:45:41;;;;;;;1.00;0.70;;;10.20;99.90;;;;;;4934011;28;20560;-69
2024/03/29 07:48:13;;;;;;;1.33;0.70;;;10.30;99.90;;;;;;4938436;28;20464;-69
2024/03/29 07:50:40;;;;;;;1.77;0.90;;;10.30;99.90;;;;;;4933606;28;20464;-70
2024/03/29 07:53:06;;;;;;;1.20;1.00;;;10.50;99.90;;;;;;4927245;28;20457;-70
2024/03/29 07:55:33;;;;;;;2.40;1.00;;;10.60;99.90;;;;;;4936437;28;20461;-70
2024/03/29 07:58:00;;;;;;;1.30;0.93;;;10.50;99.90;;;;;;4932451;28;20538;-70
2024/03/29 08:00:27;;;;;;;0.90;0.70;;;10.50;99.90;;;;;;4940906;28;20909;-69
2024/03/29 08:02:54;;;;;;;1.00;0.70;;;10.50;99.90;;;;;;4933511;28;20498;-70
2024/03/29 08:05:22;;;;;;;1.40;1.00;;;10.50;99.90;;;;;;4939588;28;20582;-70
2024/03/29 08:07:49;;;;;;;1.00;0.80;;;10.50;99.90;;;;;;4939937;28;20495;-70
2024/03/29 08:10:16;;;;;;;1.30;0.90;;;10.50;99.90;;;;;;4941565;28;20456;-70
2024/03/29 08:12:43;;;;;;;1.30;1.10;;;10.60;99.90;;;;;;4937546;28;20466;-70
2024/03/29 08:15:10;;;;;;;7.70;1.30;;;10.60;99.90;;;;;;4935548;28;20438;-70
2024/03/29 08:17:37;;;;;;;1.93;1.03;;;10.60;99.90;;;;;;4936593;28;20479;-70
2024/03/29 08:20:05;;;;;;;1.10;0.80;;;10.60;99.90;;;;;;4935668;28;20585;-70
2024/03/29 08:22:35;;;;;;;1.80;1.20;;;10.70;99.90;;;;;;4937579;28;20454;-71
2024/03/29 08:25:02;;;;;;;4.93;1.30;;;10.70;99.90;;;;;;4932844;28;20481;-71
2024/03/29 08:27:29;;;;;;;1.10;1.00;;;10.80;99.90;;;;;;4940903;28;20482;-71
2024/03/29 08:29:56;;;;;;;1.10;0.90;;;10.90;99.90;;;;;;4936149;28;20499;-71
2024/03/29 08:32:23;;;;;;;1.13;0.90;;;10.90;99.90;;;;;;4932561;28;20484;-70
2024/03/29 08:34:49;;;;;;;1.90;0.90;;;11.00;99.90;;;;;;4932912;28;20468;-70
2024/03/29 08:37:17;;;;;;;1.20;1.00;;;11.00;99.90;;;;;;4934398;28;20789;-70
2024/03/29 08:39:45;;;;;;;1.10;0.90;;;11.00;99.90;;;;;;4941149;28;20605;-70
2024/03/29 08:42:12;;;;;;;1.20;1.10;;;11.10;99.90;;;;;;4934675;28;21310;-71
2024/03/29 08:44:40;;;;;;;1.60;1.50;;;11.20;99.90;;;;;;4938102;28;20515;-70
2024/03/29 08:47:07;;;;;;;1.13;0.90;;;11.10;99.90;;;;;;4928308;28;20469;-70
2024/03/29 08:49:34;;;;;;;1.00;0.90;;;11.20;99.90;;;;;;4935415;28;20459;-70
2024/03/29 08:52:04;;;;;;;1.97;1.60;;;11.10;99.90;;;;;;4925726;28;20487;-70
2024/03/29 08:54:31;;;;;;;1.00;0.80;;;11.10;99.90;;;;;;4931377;28;20495;-71
2024/03/29 08:57:01;;;;;;;1.23;0.87;;;11.20;99.90;;;;;;4936890;28;20500;-70
2024/03/29 08:59:28;;;;;;;1.20;0.90;;;11.20;99.90;;;;;;4937840;28;20492;-71
2024/03/29 09:01:55;;;;;;;1.77;1.37;;;11.30;99.90;;;;;;4938417;28;21103;-70
2024/03/29 09:04:24;;;;;;;1.00;0.77;;;11.30;99.90;;;;;;4940542;28;20590;-71
2024/03/29 09:06:50;;;;;;;1.67;1.17;;;11.40;99.90;;;;;;4935250;28;20472;-71
2024/03/29 09:09:17;;;;;;;2.00;1.40;;;11.30;99.90;;;;;;4940295;28;20468;-70
2024/03/29 09:11:44;;;;;;;1.20;1.10;;;11.30;99.90;;;;;;4936468;28;20484;-71
2024/03/29 09:14:12;;;;;;;1.00;0.70;;;11.30;99.90;;;;;;4937312;28;20583;-71
2024/03/29 09:16:40;;;;;;;1.40;1.10;;;11.30;99.90;;;;;;4932564;28;20469;-71
2024/03/29 09:19:07;;;;;;;2.20;1.13;;;11.30;99.90;;;;;;4937918;28;20483;-70
2024/03/29 09:21:34;;;;;;;2.00;1.40;;;11.40;99.90;;;;;;4926892;28;21068;-71
2024/03/29 09:24:00;;;;;;;3.23;1.70;;;11.70;99.90;;;;;;4926981;28;20484;-71
2024/03/29 09:26:27;;;;;;;2.93;0.90;;;11.90;99.90;;;;;;4928668;28;20465;-70
2024/03/29 09:28:54;;;;;;;2.90;1.53;;;12.00;99.90;;;;;;4928942;28;20468;-71
2024/03/29 09:31:22;;;;;;;3.33;1.23;;;12.00;99.90;;;;;;4929164;28;20505;-71
2024/03/29 09:33:52;;;;;;;2.40;1.37;;;12.10;99.90;;;;;;4934339;28;20468;-70
2024/03/29 09:36:23;;;;;;;1.77;1.30;;;12.10;99.90;;;;;;4933118;28;20473;-71
2024/03/29 09:38:49;;;;;;;1.13;0.97;;;12.00;99.90;;;;;;4933228;28;20937;-71
2024/03/29 09:41:18;;;;;;;1.83;0.90;;;12.00;99.90;;;;;;4930392;28;21116;-70
2024/03/29 09:43:47;;;;;;;2.63;1.40;;;12.00;99.90;;;;;;4935698;28;20468;-71
2024/03/29 09:46:14;;;;;;;1.90;1.10;;;12.10;99.90;;;;;;4932475;28;20460;-72
2024/03/29 09:48:45;;;;;;;2.20;1.30;;;12.30;99.90;;;;;;4928516;28;20552;-70
2024/03/29 09:51:13;;;;;;;1.60;1.50;;;12.40;99.90;;;;;;4932583;28;20631;-69
2024/03/29 09:53:43;;;;;;;4.30;1.10;;;12.50;99.90;;;;;;4944582;28;20461;-69
2024/03/29 09:56:11;;;;;;;4.70;1.10;;;12.60;99.90;;;;;;4931384;28;21317;-71
2024/03/29 09:58:39;;;;;;;3.77;1.73;;;12.70;99.90;;;;;;4935321;28;20461;-70
2024/03/29 10:01:07;;;;;;;3.93;2.20;;;12.80;99.90;;;;;;4934910;28;20492;-71
2024/03/29 10:03:39;;;;;;;1.40;1.30;;;12.90;99.90;;;;;;4933085;28;20468;-70
2024/03/29 10:06:09;;;;;;;1.13;0.90;;;13.00;99.90;;;;;;4932854;28;20560;-72
2024/03/29 10:08:36;;;;;;;3.03;2.47;;;13.00;99.90;;;;;;4932025;28;20468;-69
2024/03/29 10:11:04;;;;;;;1.20;0.87;;;12.80;99.90;;;;;;4930161;28;20488;-69
2024/03/29 10:13:31;;;;;;;1.43;1.00;;;13.00;99.90;;;;;;4928375;28;20468;-70
2024/03/29 10:15:58;;;;;;;2.10;0.97;;;13.20;99.90;;;;;;4932627;28;20797;-70
2024/03/29 10:18:26;;;;;;;1.10;0.80;;;13.30;99.90;;;;;;4933353;28;20486;-71
2024/03/29 10:21:00;;;;;;;1.70;1.07;;;13.30;99.90;;;;;;4925785;28;20838;-72
2024/03/29 10:23:29;;;;;;;2.07;0.90;;;13.50;99.90;;;;;;4935253;28;20879;-70
2024/03/29 10:25:56;;;;;;;2.60;1.00;;;13.40;99.90;;;;;;4931832;28;20463;-70
2024/03/29 10:28:23;;;;;;;1.10;0.90;;;13.30;99.90;;;;;;4934193;28;20477;-71
2024/03/29 10:30:50;;;;;;;1.67;0.80;;;13.50;99.90;;;;;;4929882;28;20483;-71
2024/03/29 10:33:17;;;;;;;1.10;0.70;;;13.70;99.90;;;;;;4935653;28;20465;-69
2024/03/29 10:35:44;;;;;;;1.30;0.87;;;13.70;99.90;;;;;;4932726;28;20464;-69
2024/03/29 10:38:12;;;;;;;2.53;0.90;;;13.60;99.90;;;;;;4935886;28;20835;-70
2024/03/29 10:40:44;;;;;;;1.20;1.00;;;13.70;99.90;;;;;;4924838;28;20504;-70
2024/03/29 10:43:14;;;;;;;1.03;0.83;;;13.70;99.90;;;;;;4927318;28;20493;-70
2024/03/29 10:45:40;;;;;;;1.57;0.87;;;13.80;99.90;;;;;;4929605;28;20949;-72
2024/03/29 10:48:10;;;;;;;1.03;0.80;;;13.80;99.90;;;;;;4931208;28;20487;-73
2024/03/29 10:50:42;;;;;;;1.57;1.30;;;13.80;99.90;;;;;;4928219;28;20499;-71
2024/03/29 10:53:11;;;;;;;1.17;0.90;;;13.80;99.90;;;;;;4926996;28;20621;-72
2024/03/29 10:55:38;;;;;;;1.10;0.90;;;13.80;99.90;;;;;;4927905;28;20479;-71
2024/03/29 10:58:07;;;;;;;1.20;0.90;;;13.80;99.90;;;;;;4930323;28;20468;-72
2024/03/29 11:00:40;;;;;;;1.10;0.90;;;13.70;99.90;;;;;;4925421;28;20483;-71
2024/03/29 11:03:15;;;;;;;4.60;1.13;;;13.80;99.90;;;;;;4928665;28;20471;-72
2024/03/29 11:05:46;;;;;;;2.43;1.30;;;13.60;99.90;;;;;;4926090;28;20491;-70
2024/03/29 11:08:14;;;;;;;2.83;1.10;;;13.80;99.90;;;;;;4928718;28;20530;-72
2024/03/29 11:10:45;;;;;;;1.90;1.10;;;13.80;99.90;;;;;;4936138;28;20466;-71
2024/03/29 11:13:21;;;;;;;1.30;1.07;;;13.90;99.90;;;;;;4934577;28;20467;-71
2024/03/29 11:15:50;;;;;;;1.30;0.90;;;14.00;99.90;;;;;;4928255;28;20478;-72
2024/03/29 11:18:19;;;;;;;1.47;1.17;;;14.10;99.90;;;;;;4920172;28;20463;-73
2024/03/29 11:20:50;;;;;;;2.20;1.00;;;14.20;99.90;;;;;;4928320;28;20488;-71
2024/03/29 11:23:19;;;;;;;1.20;0.93;;;14.30;99.90;;;;;;4925683;28;20480;-70
2024/03/29 11:25:47;;;;;;;1.10;0.80;;;14.30;99.90;;;;;;4933603;28;20509;-70
2024/03/29 11:28:23;;;;;;;1.90;1.30;;;14.40;99.90;;;;;;4928394;28;20522;-70
2024/03/29 11:30:51;;;;;;;1.37;1.03;;;14.40;99.90;;;;;;4931643;28;20488;-69
2024/03/29 11:33:29;;;;;;;1.60;1.00;;;14.70;99.90;;;;;;4933207;28;20464;-70
2024/03/29 11:35:56;;;;;;;1.10;0.90;;;15.00;99.90;;;;;;4929106;28;21184;-70
2024/03/29 11:38:24;;;;;;;2.40;1.00;;;15.10;99.90;;;;;;4926684;28;20906;-69
2024/03/29 11:41:03;;;;;;;1.10;0.93;;;15.10;99.90;;;;;;4931323;28;20491;-70
2024/03/29 11:43:32;;;;;;;2.50;1.10;;;14.90;99.90;;;;;;4927261;28;20472;-70
2024/03/29 11:46:00;;;;;;;2.90;1.10;;;15.10;99.90;;;;;;4926058;28;20551;-70
2024/03/29 11:48:29;;;;;;;1.30;1.10;;;15.40;99.90;;;;;;4923861;28;20473;-69
2024/03/29 11:50:55;;;;;;;1.30;0.80;;;15.40;99.90;;;;;;4929462;28;20483;-70
2024/03/29 11:53:23;;;;;;;1.80;1.30;;;15.70;99.90;;;;;;4931588;28;20472;-69
2024/03/29 11:55:53;;;;;;;1.10;0.80;;;16.50;99.90;;;;;;4929034;28;21173;-70
2024/03/29 11:58:21;;;;;;;1.80;0.90;;;17.30;99.90;;;;;;4934460;28;20552;-70
2024/03/29 12:00:49;;;;;;;2.13;0.90;;;17.50;99.90;;;;;;4926469;28;20996;-70
2024/03/29 12:03:16;;;;;;;1.10;0.83;;;17.80;99.90;;;;;;4931389;28;20456;-69
2024/03/29 12:05:44;;;;;;;1.70;1.00;;;18.00;99.90;;;;;;4939142;28;20469;-72
2024/03/29 12:08:11;;;;;;;3.30;1.20;;;17.70;99.90;;;;;;4932860;28;20460;-70
2024/03/29 12:10:37;;;;;;;1.10;0.70;;;18.30;99.90;;;;;;4928363;28;20467;-70
2024/03/29 12:13:05;;;;;;;1.10;0.80;;;18.70;99.90;;;;;;4931657;28;20487;-70
2024/03/29 12:15:32;;;;;;;1.40;0.90;;;18.80;99.90;;;;;;4926473;28;20464;-69
2024/03/29 12:18:02;;;;;;;1.07;0.77;;;18.20;99.90;;;;;;4926263;28;20527;-70
2024/03/29 12:20:30;;;;;;;1.13;0.93;;;17.60;99.90;;;;;;4930571;28;20806;-69
2024/03/29 12:22:57;;;;;;;1.83;1.10;;;16.80;99.90;;;;;;4933454;28;20546;-70
2024/03/29 12:25:23;;;;;;;2.07;0.80;;;16.40;99.90;;;;;;4935647;28;20982;-70
2024/03/29 12:27:54;;;;;;;2.43;1.20;;;16.20;99.90;;;;;;4928970;28;20465;-71
2024/03/29 12:30:21;;;;;;;2.70;0.90;;;16.10;99.90;;;;;;4929047;28;20583;-69
2024/03/29 12:32:47;;;;;;;1.53;0.80;;;16.10;99.90;;;;;;4929923;28;20578;-69
2024/03/29 12:35:16;;;;;;;1.50;0.80;;;16.00;99.90;;;;;;4935345;28;20483;-69
2024/03/29 12:37:49;;;;;;;2.73;1.20;;;15.90;99.90;;;;;;4922384;28;20453;-69
2024/03/29 12:40:21;;;;;;;1.67;1.13;;;16.00;99.90;;;;;;4930184;28;20570;-70
2024/03/29 12:42:48;;;;;;;1.23;0.97;;;16.30;99.90;;;;;;4922445;28;20483;-70
2024/03/29 12:45:15;;;;;;;1.30;1.10;;;16.50;99.90;;;;;;4930286;28;20476;-70
2024/03/29 12:47:43;;;;;;;1.10;0.90;;;16.40;99.90;;;;;;4934874;28;21007;-70
2024/03/29 12:50:13;;;;;;;2.53;0.70;;;16.20;99.90;;;;;;4938145;28;20919;-70
2024/03/29 12:52:42;;;;;;;1.97;1.20;;;16.20;99.90;;;;;;4935401;28;21046;-68
2024/03/29 12:55:10;;;;;;;1.10;0.70;;;16.20;99.90;;;;;;4933140;28;20960;-70
2024/03/29 12:57:36;;;;;;;1.97;0.93;;;16.20;99.90;;;;;;4937296;28;20842;-69
2024/03/29 13:00:03;;;;;;;1.10;0.80;;;16.20;99.90;;;;;;4930177;28;20472;-69
2024/03/29 13:02:30;;;;;;;1.10;0.80;;;16.10;99.90;;;;;;4929325;28;20491;-70
2024/03/29 13:04:57;;;;;;;1.23;0.80;;;16.50;99.90;;;;;;4932547;28;20468;-69
2024/03/29 13:07:24;;;;;;;1.77;0.83;;;16.40;99.90;;;;;;4931295;28;21068;-70
2024/03/29 13:09:53;;;;;;;1.00;0.70;;;16.30;99.90;;;;;;4940442;28;21316;-69
2024/03/29 13:12:20;;;;;;;1.17;0.90;;;16.40;99.90;;;;;;4931484;28;20539;-70
2024/03/29 13:14:46;;;;;;;1.70;1.03;;;16.50;99.90;;;;;;4933335;28;20909;-69
2024/03/29 13:17:13;;;;;;;1.10;0.80;;;16.50;99.90;;;;;;4929984;28;20476;-69
2024/03/29 13:19:40;;;;;;;2.20;1.10;;;16.50;99.90;;;;;;4936180;28;20480;-69
2024/03/29 13:22:07;;;;;;;2.07;1.20;;;16.60;99.90;;;;;;4930784;28;20484;-70
2024/03/29 13:24:34;;;;;;;1.20;0.87;;;17.10;99.90;;;;;;4936003;28;20547;-70
2024/03/29 13:27:03;;;;;;;1.10;0.70;;;17.10;99.90;;;;;;4932947;28;20465;-70
2024/03/29 13:29:31;;;;;;;1.00;0.70;;;17.20;99.90;;;;;;4928597;28;20580;-69
2024/03/29 13:31:57;;;;;;;1.10;0.83;;;17.00;99.90;;;;;;4930820;28;20489;-70
2024/03/29 13:34:24;;;;;;;1.00;0.70;;;16.70;99.90;;;;;;4938872;28;20861;-69
2024/03/29 13:36:51;;;;;;;1.40;1.07;;;16.60;99.90;;;;;;4929580;28;20849;-70
2024/03/29 13:39:18;;;;;;;1.40;0.80;;;17.20;99.90;;;;;;4933096;28;20867;-70
2024/03/29 13:41:44;;;;;;;1.10;0.73;;;17.60;99.90;;;;;;4931838;28;20988;-70
2024/03/29 13:44:16;;;;;;;1.30;0.80;;;17.30;99.90;;;;;;4923167;28;21375;-71
2024/03/29 13:46:44;;;;;;;1.20;0.90;;;17.10;99.90;;;;;;4927404;28;21224;-70
2024/03/29 13:49:11;;;;;;;1.43;0.90;;;17.20;99.90;;;;;;4934136;28;20908;-69
2024/03/29 13:51:38;;;;;;;1.10;0.80;;;17.20;99.90;;;;;;4932994;28;20491;-69
2024/03/29 13:54:05;;;;;;;1.60;1.17;;;17.10;99.90;;;;;;4937284;28;20460;-69
2024/03/29 13:56:32;;;;;;;1.10;0.77;;;17.30;99.90;;;;;;4937941;28;20547;-70
2024/03/29 13:58:59;;;;;;;1.30;0.97;;;17.30;99.90;;;;;;4937263;28;20522;-70
2024/03/29 14:01:27;;;;;;;1.17;0.80;;;17.30;99.90;;;;;;4925393;28;20492;-70
2024/03/29 14:03:57;;;;;;;1.30;1.17;;;17.00;99.90;;;;;;4927256;28;21941;-70
2024/03/29 14:06:24;;;;;;;1.00;0.70;;;17.00;99.90;;;;;;4926113;28;20952;-70
2024/03/29 14:08:51;;;;;;;1.87;1.47;;;17.00;99.90;;;;;;4936761;28;20436;-70
2024/03/29 14:11:18;;;;;;;1.30;0.80;;;17.40;99.90;;;;;;4930746;28;20476;-70
2024/03/29 14:13:47;;;;;;;1.10;0.80;;;17.90;99.90;;;;;;4929651;28;20468;-69
2024/03/29 14:16:14;;;;;;;1.30;1.00;;;17.90;99.90;;;;;;4934443;28;20835;-69
2024/03/29 14:18:43;;;;;;;3.00;1.27;;;17.80;99.90;;;;;;4932274;28;20537;-70
2024/03/29 14:21:10;;;;;;;2.97;1.10;;;17.70;99.90;;;;;;4932657;28;20483;-69
2024/03/29 14:23:37;;;;;;;2.90;1.50;;;17.60;99.90;;;;;;4926878;28;20463;-69
2024/03/29 14:26:04;;;;;;;1.10;0.80;;;17.80;99.90;;;;;;4930997;28;20473;-69
2024/03/29 14:28:30;;;;;;;1.40;0.80;;;17.40;99.90;;;;;;4936386;28;20571;-70
2024/03/29 14:30:57;;;;;;;2.17;1.37;;;17.30;99.90;;;;;;4931224;28;20472;-69
2024/03/29 14:33:24;;;;;;;1.10;0.90;;;17.10;99.90;;;;;;4930434;28;20467;-69
2024/03/29 14:35:53;;;;;;;1.03;0.77;;;16.30;99.90;;;;;;4927428;28;20471;-69
2024/03/29 14:38:21;;;;;;;1.60;1.07;;;16.20;99.90;;;;;;4930365;28;20465;-70
2024/03/29 14:40:48;;;;;;;3.33;1.03;;;16.20;99.90;;;;;;4936620;28;20566;-70
2024/03/29 14:43:15;;;;;;;14.67;1.50;;;16.30;99.90;;;;;;4928532;28;20479;-69